Ruby, South Carolina
Current Conditions -  °F | °C
As of 10:55 AM on Saturday 25 Oct 2014 (Local Time) from KCQW Reporting Station
Clear Clear  
Wind Chill: 59°   Ceiling: Unl
Heat Index: 59°   Visibility: 7mi
Dew Point: 41°   Wind: 7mph
Humidity: 51%   Direction: 340°NNW
Pressure: 30.04"   Gusts: NA
Location:  34.75°N, 80.18°W
Report Text: KCQW 251455Z AUTO 34006KT 7SM CLR 15/05 A3004 RMK AO2
Loading
Personal Weather Stations






























Interactive Weather Map
Tropical Storm Tracking
New forecast layout! Learn more

10-Day Weather Forecast

Advertisements
Track Severe Weather on mobile